Big Piney River (Missouri), Fort Leonard Wood (06930060)

StateMissouriLatestLow (505 cfs)
RiverBig Piney RiverRatingObservedEstimated
Updated2020-08-11 19:00 (28 minutes ago)Flood - The river is flooding. Obstacles can be treacherous or deadly. The river should be avoided at this stage for casual trips and definitely for the inexperienced. Trips should be attempted only with protective gear and equipment.Flood(none)3031
Discharge505 cfs (median: 201 cfs)High - The river is high and potentially dangerous, especially for the young and / or inexperienced. Normal stream obstacles are sometimes difficult to navigate. Extended distances can be attempted, but canoe travel may not be advisable.High(none)1449
Height2.71 feetGood - Conditions are ideal for a canoe or kayak. Boats typically will drag on fewer than one-quarter of riffles, if at all, and portages are unnecessary or rare. Normal float lengths can be attempted without a problem.Good(none)638
TrendRising (rising over 24 hours)Low - River is low but can still be floated. Some riffles are okay but most come with significant dragging and might need a portage. Float lengths should be reduced to accommodate low flow, dragging, and portages.Low(none)385
USGSExternal icon USGS Site (External icon Google Maps)Poor - River is too low to float comfortably. Most or all riffles will drag or must be portaged and some obstacles (such as slick shelf rock) cause undue problems. Avoid the river at this stage for casual paddling trips.Poor(none)204

Trending Data

Plot Image

Trips for Big Piney River (Missouri), Fort Leonard Wood (06930060)

DateStartEndDistanceConditionDischargeHeightFishingDetails

A total of 0 rows are displayed.

Condition Descriptions

Fishing Conditions

Fish Species

Notes

Classic Trip List

The classic River Trips application is still available for use. It is updated with the new system using a data retrofit. It is no longer maintained. The original River Trips application is no longer updated (as of 1 Dec 2016) but can be checked for errors or for the condition of the data before it was converted to the new system.

Gauge Data Table

ObservationHeightDischargeMaximum
Discharge
Minimum
Discharge
Mean
Discharge
P05P10P20P25P50
(Median)
P75P80P90P95
2020-08-11 19:00 2.71 505 4870 (2015) 127 (2007) 672 127 131 140 146 201 310 314 4360 4870
2020-08-11 18:00 2.69 497 4870 (2015) 127 (2007) 672 127 131 140 146 201 310 314 4360 4870
2020-08-11 17:00 2.72 509 4870 (2015) 127 (2007) 672 127 131 140 146 201 310 314 4360 4870
2020-08-11 16:00 2.71 505 4870 (2015) 127 (2007) 672 127 131 140 146 201 310 314 4360 4870
2020-08-11 15:00 2.70 501 4870 (2015) 127 (2007) 672 127 131 140 146 201 310 314 4360 4870
2020-08-11 14:00 2.71 505 4870 (2015) 127 (2007) 672 127 131 140 146 201 310 314 4360 4870
2020-08-11 13:00 2.69 497 4870 (2015) 127 (2007) 672 127 131 140 146 201 310 314 4360 4870
2020-08-11 12:00 2.69 497 4870 (2015) 127 (2007) 672 127 131 140 146 201 310 314 4360 4870
2020-08-11 11:00 2.69 497 4870 (2015) 127 (2007) 672 127 131 140 146 201 310 314 4360 4870
2020-08-11 10:00 2.65 481 4870 (2015) 127 (2007) 672 127 131 140 146 201 310 314 4360 4870
2020-08-11 09:00 2.61 466 4870 (2015) 127 (2007) 672 127 131 140 146 201 310 314 4360 4870
2020-08-11 08:00 2.59 458 4870 (2015) 127 (2007) 672 127 131 140 146 201 310 314 4360 4870
2020-08-11 07:00 2.56 447 4870 (2015) 127 (2007) 672 127 131 140 146 201 310 314 4360 4870
2020-08-11 06:00 2.55 443 4870 (2015) 127 (2007) 672 127 131 140 146 201 310 314 4360 4870
2020-08-11 05:00 2.51 429 4870 (2015) 127 (2007) 672 127 131 140 146 201 310 314 4360 4870
2020-08-11 04:00 2.47 414 4870 (2015) 127 (2007) 672 127 131 140 146 201 310 314 4360 4870
2020-08-11 03:00 2.45 406 4870 (2015) 127 (2007) 672 127 131 140 146 201 310 314 4360 4870
2020-08-11 02:00 2.47 414 4870 (2015) 127 (2007) 672 127 131 140 146 201 310 314 4360 4870
2020-08-11 01:00 2.45 406 4870 (2015) 127 (2007) 672 127 131 140 146 201 310 314 4360 4870
2020-08-11 00:00 2.44 402 4870 (2015) 127 (2007) 672 127 131 140 146 201 310 314 4360 4870
2020-08-10 23:00 2.45 406 5610 (2013) 128 (2001) 590 128 129 142 146 197 317 340 2130 5450
2020-08-10 22:00 2.42 395 5610 (2013) 128 (2001) 590 128 129 142 146 197 317 340 2130 5450
2020-08-10 21:00 2.38 381 5610 (2013) 128 (2001) 590 128 129 142 146 197 317 340 2130 5450
2020-08-10 20:00 2.38 381 5610 (2013) 128 (2001) 590 128 129 142 146 197 317 340 2130 5450
2020-08-10 19:00 2.36 374 5610 (2013) 128 (2001) 590 128 129 142 146 197 317 340 2130 5450
2020-08-10 18:00 2.37 377 5610 (2013) 128 (2001) 590 128 129 142 146 197 317 340 2130 5450
2020-08-10 17:00 2.38 381 5610 (2013) 128 (2001) 590 128 129 142 146 197 317 340 2130 5450
2020-08-10 16:00 2.36 374 5610 (2013) 128 (2001) 590 128 129 142 146 197 317 340 2130 5450
2020-08-10 15:00 2.37 377 5610 (2013) 128 (2001) 590 128 129 142 146 197 317 340 2130 5450
2020-08-10 14:00 2.38 381 5610 (2013) 128 (2001) 590 128 129 142 146 197 317 340 2130 5450
2020-08-10 13:00 2.38 381 5610 (2013) 128 (2001) 590 128 129 142 146 197 317 340 2130 5450
2020-08-10 12:00 2.37 377 5610 (2013) 128 (2001) 590 128 129 142 146 197 317 340 2130 5450
2020-08-10 11:00 2.36 374 5610 (2013) 128 (2001) 590 128 129 142 146 197 317 340 2130 5450
2020-08-10 10:00 2.39 384 5610 (2013) 128 (2001) 590 128 129 142 146 197 317 340 2130 5450
2020-08-10 09:00 2.37 377 5610 (2013) 128 (2001) 590 128 129 142 146 197 317 340 2130 5450
2020-08-10 08:00 2.37 377 5610 (2013) 128 (2001) 590 128 129 142 146 197 317 340 2130 5450
2020-08-10 07:00 2.37 377 5610 (2013) 128 (2001) 590 128 129 142 146 197 317 340 2130 5450
2020-08-10 06:00 2.38 381 5610 (2013) 128 (2001) 590 128 129 142 146 197 317 340 2130 5450
2020-08-10 05:00 2.39 406 5610 (2013) 128 (2001) 590 128 129 142 146 197 317 340 2130 5450
2020-08-10 04:00 2.39 406 5610 (2013) 128 (2001) 590 128 129 142 146 197 317 340 2130 5450
2020-08-10 03:00 2.39 406 5610 (2013) 128 (2001) 590 128 129 142 146 197 317 340 2130 5450
2020-08-10 02:00 2.40 410 5610 (2013) 128 (2001) 590 128 129 142 146 197 317 340 2130 5450
2020-08-10 01:00 2.39 406 5610 (2013) 128 (2001) 590 128 129 142 146 197 317 340 2130 5450
2020-08-10 00:00 2.39 406 5610 (2013) 128 (2001) 590 128 129 142 146 197 317 340 2130 5450

A total of 44 rows are displayed for years 2000 through 2019.